createdAt,value
2019-05-15T00:04:45.696Z,97727.34
2019-05-15T00:09:41.987Z,97719.88
2019-05-15T00:14:38.887Z,97719.05
2019-05-15T00:19:43.099Z,97717.41
2019-05-15T00:24:58.219Z,97707.36
2019-05-15T00:30:06.025Z,97699.48
2019-05-15T00:35:09.392Z,97701.20
2019-05-15T00:40:14.664Z,97703.12
2019-05-15T00:45:13.012Z,97695.41
2019-05-15T00:50:12.601Z,97687.80
2019-05-15T00:55:09.499Z,97674.60
2019-05-15T01:00:08.193Z,97666.65
2019-05-15T01:05:04.129Z,97661.42
2019-05-15T01:10:00.044Z,97663.73
2019-05-15T01:14:59.187Z,97658.65
2019-05-15T01:19:55.042Z,97651.30
2019-05-15T01:24:58.939Z,97635.09
2019-05-15T01:29:55.035Z,97642.05
2019-05-15T01:34:58.167Z,97632.08
2019-05-15T01:39:54.074Z,97625.18
2019-05-15T01:50:22.144Z,97617.95
2019-05-15T01:55:39.103Z,97613.52
2019-05-15T02:00:50.030Z,97614.68
2019-05-15T02:05:52.155Z,97608.08
2019-05-15T02:11:09.090Z,97608.48
2019-05-15T02:16:39.277Z,97610.02
2019-05-15T02:21:38.124Z,97599.14
2019-05-15T02:26:33.796Z,97593.92
2019-05-15T02:32:23.736Z,97586.46
2019-05-15T02:38:09.641Z,97586.88
2019-05-15T02:43:41.614Z,97581.48
2019-05-15T02:48:54.956Z,97580.59
2019-05-15T02:54:35.740Z,97579.19
2019-05-15T02:59:39.599Z,97574.58
2019-05-15T03:04:59.508Z,97570.67
2019-05-15T03:10:11.707Z,97559.34
2019-05-15T03:21:24.385Z,97561.78
2019-05-15T03:27:29.639Z,97559.28
2019-05-15T03:33:00.552Z,97558.27
2019-05-15T03:37:59.978Z,97554.05
2019-05-15T03:43:02.459Z,97541.52
2019-05-15T03:48:34.163Z,97542.89
2019-05-15T03:53:50.769Z,97548.78
2019-05-15T04:00:12.292Z,97549.84
2019-05-15T04:05:12.415Z,97557.88
2019-05-15T04:10:13.392Z,97547.46
2019-05-15T04:15:18.558Z,97554.13
2019-05-15T04:20:25.249Z,97555.91
2019-05-15T04:25:34.071Z,97543.79
2019-05-15T04:30:32.498Z,97545.49
2019-05-15T04:36:14.730Z,97541.25
2019-05-15T04:53:58.736Z,97526.86
2019-05-15T04:58:54.502Z,97527.14
2019-05-15T05:03:50.393Z,97527.58
2019-05-15T05:08:48.867Z,97518.25
2019-05-15T05:13:43.666Z,97512.41
2019-05-15T05:18:41.022Z,97511.42
2019-05-15T05:23:37.751Z,97503.83
2019-05-15T05:28:33.730Z,97495.72
2019-05-15T05:33:29.519Z,97503.38
2019-05-15T05:38:25.394Z,97509.34
2019-05-15T05:43:21.319Z,97510.13
2019-05-15T05:48:18.767Z,97504.98
2019-05-15T05:53:15.127Z,97502.23
2019-05-15T05:58:13.805Z,97507.48
2019-05-15T06:03:10.447Z,97506.27
2019-05-15T06:08:08.026Z,97506.30
2019-05-15T06:13:03.890Z,97501.80
2019-05-15T06:17:59.882Z,97518.98
2019-05-15T06:22:57.909Z,97515.55
2019-05-15T06:27:53.127Z,97508.89
2019-05-15T06:33:04.970Z,97513.55
2019-05-15T06:37:48.411Z,97503.36
2019-05-15T06:42:44.044Z,97507.86
2019-05-15T06:47:40.009Z,97496.83
2019-05-15T06:52:37.833Z,97493.11
2019-05-15T06:57:33.315Z,97498.24
2019-05-15T07:02:29.097Z,97513.86
2019-05-15T07:07:25.827Z,97505.06
2019-05-15T07:12:21.626Z,97508.42
2019-05-15T07:17:17.827Z,97512.91
2019-05-15T07:22:13.721Z,97504.21
2019-05-15T07:27:09.683Z,97499.38
2019-05-15T07:32:14.250Z,97494.86
2019-05-15T07:37:11.435Z,97500.31
2019-05-15T07:42:12.311Z,97497.73
2019-05-15T07:47:09.374Z,97500.09
2019-05-15T07:52:05.522Z,97492.89
2019-05-15T07:57:04.864Z,97490.03
2019-05-15T08:02:02.697Z,97493.37
2019-05-15T08:06:59.243Z,97498.52
2019-05-15T08:12:08.304Z,97492.11
2019-05-15T08:17:12.035Z,97490.42
2019-05-15T08:22:24.783Z,97484.28
2019-05-15T08:27:23.580Z,97485.62
2019-05-15T08:32:19.061Z,97484.02
2019-05-15T08:37:15.164Z,97483.19
2019-05-15T08:42:11.028Z,97477.18
2019-05-15T08:47:08.144Z,97478.61
2019-05-15T08:52:07.096Z,97470.52
2019-05-15T08:57:08.466Z,97470.39
2019-05-15T09:02:10.754Z,97467.66
2019-05-15T09:07:28.596Z,97472.39
2019-05-15T09:12:24.280Z,97469.47
2019-05-15T09:17:21.323Z,97469.00
2019-05-15T09:22:18.705Z,97456.86
2019-05-15T09:27:22.404Z,97448.47
2019-05-15T09:32:23.155Z,97448.32
2019-05-15T09:37:19.012Z,97446.38
2019-05-15T09:42:14.856Z,97442.70
2019-05-15T09:47:10.769Z,97440.30
2019-05-15T09:52:08.836Z,97441.73
2019-05-15T09:57:04.081Z,97434.92
2019-05-15T10:02:00.401Z,97427.25
2019-05-15T10:06:56.298Z,97441.66
2019-05-15T10:11:52.193Z,97434.97
2019-05-15T10:16:58.392Z,97439.90
2019-05-15T10:22:09.676Z,97430.34
2019-05-15T10:27:18.057Z,97433.17
2019-05-15T10:32:11.726Z,97442.26
2019-05-15T10:37:08.448Z,97423.34
2019-05-15T10:42:08.225Z,97425.63
2019-05-15T10:47:04.476Z,97423.22
2019-05-15T10:52:02.183Z,97416.73
2019-05-15T10:57:08.402Z,97414.53
2019-05-15T11:02:08.418Z,97413.30
2019-05-15T11:07:06.641Z,97417.37
2019-05-15T11:12:09.423Z,97410.10
2019-05-15T11:17:06.993Z,97395.92
2019-05-15T11:22:02.902Z,97388.50
2019-05-15T11:26:59.415Z,97393.12
2019-05-15T11:31:58.243Z,97390.82
2019-05-15T11:36:54.154Z,97391.67
2019-05-15T11:41:50.018Z,97385.25
2019-05-15T11:46:45.818Z,97375.74
2019-05-15T11:51:41.744Z,97372.66
2019-05-15T11:56:50.031Z,97379.91
2019-05-15T12:01:50.545Z,97376.77
2019-05-15T12:06:58.878Z,97381.47
2019-05-15T12:11:48.540Z,97386.05
2019-05-15T12:17:10.392Z,97376.45
2019-05-15T12:21:59.947Z,97373.82
2019-05-15T12:32:33.298Z,97359.81
2019-05-15T12:38:09.825Z,97361.77
2019-05-15T13:03:54.330Z,97346.53
2019-05-15T13:08:54.231Z,97342.77
2019-05-15T13:13:55.424Z,97347.03
2019-05-15T13:18:52.602Z,97342.66
2019-05-15T13:23:53.392Z,97333.41
2019-05-15T13:29:03.460Z,97342.78
2019-05-15T13:34:09.372Z,97340.11
2019-05-15T13:39:11.113Z,97338.42
2019-05-15T13:44:13.295Z,97335.08
2019-05-15T13:49:18.592Z,97336.39
2019-05-15T13:54:28.965Z,97335.56
2019-05-15T13:59:33.543Z,97324.95
2019-05-15T14:04:32.054Z,97334.05
2019-05-15T14:09:33.590Z,97331.55
2019-05-15T14:14:28.556Z,97336.48
2019-05-15T14:19:27.901Z,97327.97
2019-05-15T14:24:23.762Z,97324.20
2019-05-15T14:29:29.159Z,97316.89
2019-05-15T14:34:38.250Z,97319.78
2019-05-15T14:39:44.173Z,97314.90
2019-05-15T14:44:44.834Z,97315.59
2019-05-15T14:49:49.396Z,97312.74
2019-05-15T14:54:50.376Z,97311.63
2019-05-15T14:59:53.694Z,97313.19
2019-05-15T15:05:00.638Z,97309.48
2019-05-15T15:10:49.528Z,97303.00
2019-05-15T15:15:59.131Z,97300.98
2019-05-15T15:21:02.278Z,97304.40
2019-05-15T15:26:32.855Z,97302.97
2019-05-15T15:31:40.388Z,97300.80
2019-05-15T15:36:48.314Z,97298.05
2019-05-15T15:41:52.723Z,97302.91
2019-05-15T15:47:35.403Z,97301.95
2019-05-15T15:52:40.140Z,97302.21
2019-05-15T15:58:31.417Z,97293.48
2019-05-15T16:04:33.638Z,97300.74
2019-05-15T16:15:44.500Z,97296.55
2019-05-15T16:33:09.498Z,97277.31
2019-05-15T16:38:39.444Z,97287.78
2019-05-15T16:43:45.397Z,97282.08
2019-05-15T16:49:08.813Z,97286.98
2019-05-15T16:54:10.330Z,97290.59
2019-05-15T16:59:10.720Z,97286.65
2019-05-15T17:04:24.533Z,97290.84
2019-05-15T17:09:28.190Z,97286.17
2019-05-15T17:14:28.601Z,97286.30
2019-05-15T17:19:34.185Z,97282.48
2019-05-15T17:24:30.821Z,97284.62
2019-05-15T17:29:51.767Z,97289.41
2019-05-15T17:35:02.506Z,97287.63
2019-05-15T17:40:13.130Z,97294.06
2019-05-15T17:45:10.130Z,97291.79
2019-05-15T17:50:08.394Z,97295.25
2019-05-15T17:55:04.752Z,97294.41
2019-05-15T18:00:00.600Z,97290.95
2019-05-15T18:04:58.599Z,97294.19
2019-05-15T18:09:54.596Z,97299.30
2019-05-15T18:14:51.777Z,97293.30
2019-05-15T18:19:48.704Z,97299.14
2019-05-15T18:24:44.791Z,97301.28
2019-05-15T18:29:40.759Z,97293.73
2019-05-15T18:34:39.435Z,97299.48
2019-05-15T18:39:34.320Z,97292.66
2019-05-15T18:44:30.219Z,97285.94
2019-05-15T18:49:28.395Z,97294.05
2019-05-15T18:54:28.022Z,97298.73
2019-05-15T19:00:36.087Z,97298.17
2019-05-15T19:06:35.353Z,97299.09
2019-05-15T19:11:43.470Z,97302.80
2019-05-15T19:18:33.744Z,97299.50
2019-05-15T21:53:28.736Z,97197.81
2019-05-15T21:58:25.518Z,97190.67
2019-05-15T22:03:21.890Z,97179.91
2019-05-15T22:08:18.385Z,97174.36
2019-05-15T22:13:14.255Z,97170.55
2019-05-15T22:18:11.542Z,97186.41
2019-05-15T22:23:08.230Z,97176.97
2019-05-15T22:28:04.285Z,97174.82
2019-05-15T22:32:59.981Z,97170.56
2019-05-15T22:37:58.226Z,97163.48
2019-05-15T22:42:53.228Z,97160.55
2019-05-15T22:47:49.287Z,97151.47
2019-05-15T22:52:45.105Z,97156.20
2019-05-15T22:57:40.830Z,97150.17
2019-05-15T23:02:36.606Z,97152.10
2019-05-15T23:07:32.622Z,97148.33
2019-05-15T23:12:28.771Z,97146.14
2019-05-15T23:17:24.541Z,97148.06
2019-05-15T23:22:20.320Z,97141.09
2019-05-15T23:27:18.150Z,97137.00
2019-05-15T23:32:14.065Z,97129.55
2019-05-15T23:37:09.800Z,97123.11
2019-05-15T23:42:05.571Z,97116.99
2019-05-15T23:47:01.288Z,97107.41
2019-05-15T23:51:58.230Z,97102.75
2019-05-15T23:56:54.231Z,97088.49
